Time,TemperatureF,DewpointF,PressureIn,WindDirection,WindDirectionDegrees,WindSpeedMPH,WindSpeedGustMPH,Humidity,HourlyPrecipIn,Conditions,Clouds,dailyrainin,SolarRadiationWatts/m^2,SoftwareType,DateUTC
2015-07-05 00:01:00,62.6,58.7,29.22,SW,232,0.0,-999.0,87,0.00,,,0.00,0,Wunderground v.1.15,2015-07-05 04:01:00,
2015-07-05 00:11:00,62.4,58.8,29.23,SW,232,0.0,-999.0,88,0.00,,,0.00,0,Wunderground v.1.15,2015-07-05 04:11:00,
2015-07-05 00:21:00,62.3,58.7,29.23,SSW,201,0.0,-999.0,88,0.00,,,0.00,0,Wunderground v.1.15,2015-07-05 04:21:00,
2015-07-05 00:26:00,62.1,58.8,29.23,SSW,201,1.0,-999.0,89,0.00,,,0.00,0,Wunderground v.1.15,2015-07-05 04:26:00,
2015-07-05 00:36:00,62.0,58.7,29.23,SSW,201,0.0,-999.0,89,0.00,,,0.00,0,Wunderground v.1.15,2015-07-05 04:36:00,
2015-07-05 00:41:00,62.0,58.7,29.23,SSW,201,0.0,-999.0,89,0.00,,,0.00,0,Wunderground v.1.15,2015-07-05 04:41:00,
2015-07-05 00:51:00,61.7,58.4,29.23,SSW,201,0.0,-999.0,89,0.00,,,0.00,0,Wunderground v.1.15,2015-07-05 04:51:00,
2015-07-05 01:01:00,61.5,58.2,29.23,SSW,201,0.0,-999.0,89,0.00,,,0.00,0,Wunderground v.1.15,2015-07-05 05:01:00,
2015-07-05 01:06:00,61.5,58.2,29.23,SSW,201,0.0,-999.0,89,0.00,,,0.00,0,Wunderground v.1.15,2015-07-05 05:06:00,
2015-07-05 01:16:00,61.4,58.1,29.23,SSW,201,0.0,-999.0,89,0.00,,,0.00,0,Wunderground v.1.15,2015-07-05 05:16:00,
2015-07-05 01:21:00,61.2,58.2,29.23,SSW,201,0.0,-999.0,90,0.00,,,0.00,0,Wunderground v.1.15,2015-07-05 05:21:00,
2015-07-05 01:31:00,61.0,58.0,29.23,SSW,202,0.0,-999.0,90,0.00,,,0.00,0,Wunderground v.1.15,2015-07-05 05:31:00,
2015-07-05 01:36:00,60.9,57.9,29.23,SSW,202,0.0,-999.0,90,0.00,,,0.00,0,Wunderground v.1.15,2015-07-05 05:36:00,
2015-07-05 01:46:00,60.6,58.0,29.23,SSW,202,0.0,-999.0,91,0.00,,,0.00,0,Wunderground v.1.15,2015-07-05 05:46:00,
2015-07-05 01:51:00,60.4,57.8,29.23,SSW,202,0.0,-999.0,91,0.00,,,0.00,0,Wunderground v.1.15,2015-07-05 05:51:00,
2015-07-05 02:01:00,60.2,57.6,29.23,SSW,202,0.0,-999.0,91,0.00,,,0.00,0,Wunderground v.1.15,2015-07-05 06:01:00,
2015-07-05 02:06:00,60.2,57.9,29.23,SSW,201,0.0,-999.0,92,0.00,,,0.00,0,Wunderground v.1.15,2015-07-05 06:06:00,
2015-07-05 02:11:00,60.2,57.9,29.23,SSW,201,1.0,-999.0,92,0.00,,,0.00,0,Wunderground v.1.15,2015-07-05 06:11:00,
2015-07-05 02:21:00,60.1,57.8,29.23,SSW,201,0.0,-999.0,92,0.00,,,0.00,0,Wunderground v.1.15,2015-07-05 06:21:00,
2015-07-05 02:26:00,59.9,57.6,29.23,SSW,201,0.0,-999.0,92,0.00,,,0.00,0,Wunderground v.1.15,2015-07-05 06:26:00,
2015-07-05 02:36:00,59.8,57.5,29.24,SSW,201,0.0,-999.0,92,0.00,,,0.00,0,Wunderground v.1.15,2015-07-05 06:36:00,
2015-07-05 02:41:00,59.8,57.5,29.24,South,191,2.0,-999.0,92,0.00,,,0.00,0,Wunderground v.1.15,2015-07-05 06:41:00,
2015-07-05 02:51:00,59.9,57.6,29.23,SSE,159,2.0,-999.0,92,0.00,,,0.00,0,Wunderground v.1.15,2015-07-05 06:51:00,
2015-07-05 03:01:00,59.9,57.9,29.23,South,186,2.0,-999.0,93,0.00,,,0.00,0,Wunderground v.1.15,2015-07-05 07:01:00,
2015-07-05 03:06:00,59.8,57.8,29.23,South,182,4.0,-999.0,93,0.00,,,0.00,0,Wunderground v.1.15,2015-07-05 07:06:00,
2015-07-05 03:16:00,59.8,57.8,29.23,SSW,196,1.0,-999.0,93,0.00,,,0.00,0,Wunderground v.1.15,2015-07-05 07:16:00,
2015-07-05 03:26:00,59.8,57.8,29.23,SSW,197,0.0,-999.0,93,0.00,,,0.00,0,Wunderground v.1.15,2015-07-05 07:26:00,
2015-07-05 03:31:00,59.8,57.5,29.24,SSW,197,0.0,-999.0,92,0.00,,,0.00,0,Wunderground v.1.15,2015-07-05 07:31:00,
2015-07-05 03:41:00,59.9,57.6,29.24,WSW,255,0.0,-999.0,92,0.00,,,0.00,0,Wunderground v.1.15,2015-07-05 07:41:00,
2015-07-05 03:46:00,60.0,57.7,29.24,WSW,255,0.0,-999.0,92,0.00,,,0.00,0,Wunderground v.1.15,2015-07-05 07:46:00,
2015-07-05 03:56:00,59.9,57.6,29.24,WSW,255,0.0,-999.0,92,0.00,,,0.00,0,Wunderground v.1.15,2015-07-05 07:56:00,
2015-07-05 04:06:00,59.8,57.5,29.25,WSW,255,0.0,-999.0,92,0.00,,,0.00,0,Wunderground v.1.15,2015-07-05 08:06:00,
2015-07-05 04:11:00,59.8,57.5,29.25,WSW,255,0.0,-999.0,92,0.00,,,0.00,0,Wunderground v.1.15,2015-07-05 08:11:00,
2015-07-05 04:21:00,59.6,57.3,29.25,WSW,255,0.0,-999.0,92,0.00,,,0.00,0,Wunderground v.1.15,2015-07-05 08:21:00,
2015-07-05 04:31:00,59.3,57.0,29.25,WSW,255,0.0,-999.0,92,0.00,,,0.00,0,Wunderground v.1.15,2015-07-05 08:31:00,
2015-07-05 04:36:00,59.2,56.9,29.25,WSW,255,0.0,-999.0,92,0.00,,,0.00,0,Wunderground v.1.15,2015-07-05 08:36:00,
2015-07-05 04:46:00,58.7,56.7,29.25,WSW,255,0.0,-999.0,93,0.00,,,0.00,0,Wunderground v.1.15,2015-07-05 08:46:00,
2015-07-05 04:56:00,58.6,56.6,29.25,WSW,255,0.0,-999.0,93,0.00,,,0.00,0,Wunderground v.1.15,2015-07-05 08:56:00,
2015-07-05 05:06:00,58.4,56.4,29.25,WSW,255,0.0,-999.0,93,0.00,,,0.00,0,Wunderground v.1.15,2015-07-05 09:06:00,
2015-07-05 05:11:00,58.4,56.4,29.25,WSW,255,0.0,-999.0,93,0.00,,,0.00,0,Wunderground v.1.15,2015-07-05 09:11:00,
2015-07-05 05:21:00,58.3,56.3,29.25,WSW,255,0.0,-999.0,93,0.00,,,0.00,0,Wunderground v.1.15,2015-07-05 09:21:00,
2015-07-05 05:26:00,58.3,56.6,29.25,WSW,255,0.0,-999.0,94,0.00,,,0.00,0,Wunderground v.1.15,2015-07-05 09:26:00,
2015-07-05 05:36:00,58.1,56.7,29.26,WSW,255,0.0,-999.0,95,0.00,,,0.00,0,Wunderground v.1.15,2015-07-05 09:36:00,
2015-07-05 05:46:00,58.0,56.6,29.26,WSW,255,0.0,-999.0,95,0.00,,,0.00,0,Wunderground v.1.15,2015-07-05 09:46:00,
2015-07-05 05:56:00,57.8,56.4,29.26,WSW,255,0.0,-999.0,95,0.00,,,0.00,0,Wunderground v.1.15,2015-07-05 09:56:00,
2015-07-05 06:06:00,57.7,56.3,29.26,WSW,255,0.0,-999.0,95,0.00,,,0.00,0,Wunderground v.1.15,2015-07-05 10:06:00,
2015-07-05 06:11:00,57.6,56.5,29.27,WSW,255,0.0,-999.0,96,0.00,,,0.00,0,Wunderground v.1.15,2015-07-05 10:11:00,
2015-07-05 06:21:00,57.7,56.6,29.27,WSW,255,0.0,-999.0,96,0.00,,,0.00,0,Wunderground v.1.15,2015-07-05 10:21:00,
2015-07-05 06:26:00,57.7,56.6,29.27,WSW,255,0.0,-999.0,96,0.00,,,0.00,0,Wunderground v.1.15,2015-07-05 10:26:00,
2015-07-05 06:36:00,57.5,56.4,29.27,WSW,255,0.0,-999.0,96,0.00,,,0.00,0,Wunderground v.1.15,2015-07-05 10:36:00,
2015-07-05 06:41:00,57.5,56.4,29.27,WSW,255,0.0,-999.0,96,0.00,,,0.00,0,Wunderground v.1.15,2015-07-05 10:41:00,
2015-07-05 06:51:00,57.4,56.6,29.28,WSW,255,0.0,-999.0,97,0.00,,,0.00,0,Wunderground v.1.15,2015-07-05 10:51:00,
2015-07-05 07:01:00,57.5,56.7,29.28,WSW,255,0.0,-999.0,97,0.00,,,0.00,0,Wunderground v.1.15,2015-07-05 11:01:00,
2015-07-05 07:11:00,57.8,57.0,29.28,WSW,255,0.0,-999.0,97,0.00,,,0.00,0,Wunderground v.1.15,2015-07-05 11:11:00,
2015-07-05 07:16:00,57.8,57.0,29.28,WSW,255,0.0,-999.0,97,0.00,,,0.00,0,Wunderground v.1.15,2015-07-05 11:16:00,
2015-07-05 07:26:00,58.0,57.2,29.28,WSW,255,0.0,-999.0,97,0.00,,,0.00,0,Wunderground v.1.15,2015-07-05 11:26:00,
2015-07-05 07:36:00,58.4,57.6,29.27,WSW,254,0.0,-999.0,97,0.00,,,0.00,0,Wunderground v.1.15,2015-07-05 11:36:00,
2015-07-05 07:46:00,58.9,58.3,29.28,WSW,255,0.0,-999.0,98,0.00,,,0.00,0,Wunderground v.1.15,2015-07-05 11:46:00,
2015-07-05 07:51:00,59.2,58.6,29.27,WSW,255,0.0,-999.0,98,0.00,,,0.00,0,Wunderground v.1.15,2015-07-05 11:51:00,
2015-07-05 08:01:00,59.6,59.0,29.27,WSW,255,0.0,-999.0,98,0.00,,,0.00,0,Wunderground v.1.15,2015-07-05 12:01:00,
2015-07-05 08:11:00,60.2,59.6,29.27,WSW,255,0.0,-999.0,98,0.00,,,0.00,0,Wunderground v.1.15,2015-07-05 12:11:00,
2015-07-05 08:16:00,60.9,60.3,29.27,WSW,254,0.0,-999.0,98,0.00,,,0.00,0,Wunderground v.1.15,2015-07-05 12:16:00,
2015-07-05 08:26:00,62.0,61.4,29.27,WSW,255,0.0,-999.0,98,0.00,,,0.00,0,Wunderground v.1.15,2015-07-05 12:26:00,
2015-07-05 08:36:00,63.1,62.5,29.27,WSW,255,0.0,-999.0,98,0.00,,,0.00,0,Wunderground v.1.15,2015-07-05 12:36:00,
2015-07-05 08:41:00,63.9,63.3,29.27,WSW,255,0.0,-999.0,98,0.00,,,0.00,0,Wunderground v.1.15,2015-07-05 12:41:00,
2015-07-05 08:51:00,65.4,64.5,29.28,WSW,254,0.0,-999.0,97,0.00,,,0.00,0,Wunderground v.1.15,2015-07-05 12:51:00,
2015-07-05 09:01:00,66.9,65.1,29.28,WSW,256,0.0,-999.0,94,0.00,,,0.00,0,Wunderground v.1.15,2015-07-05 13:01:00,
2015-07-05 09:06:00,67.6,64.6,29.29,WSW,256,0.0,-999.0,90,0.00,,,0.00,0,Wunderground v.1.15,2015-07-05 13:06:00,
2015-07-05 09:16:00,69.3,64.6,29.29,WSW,243,3.0,-999.0,85,0.00,,,0.00,0,Wunderground v.1.15,2015-07-05 13:16:00,
2015-07-05 09:26:00,71.4,63.8,29.29,SW,218,0.0,-999.0,77,0.00,,,0.00,0,Wunderground v.1.15,2015-07-05 13:26:00,
2015-07-05 09:36:00,73.0,63.8,29.29,SSW,211,0.0,-999.0,73,0.00,,,0.00,0,Wunderground v.1.15,2015-07-05 13:36:00,
2015-07-05 09:41:00,73.2,63.6,29.30,SSW,211,3.0,-999.0,72,0.00,,,0.00,0,Wunderground v.1.15,2015-07-05 13:41:00,
2015-07-05 09:51:00,74.3,63.5,29.30,SSW,210,1.0,-999.0,69,0.00,,,0.00,0,Wunderground v.1.15,2015-07-05 13:51:00,
2015-07-05 10:01:00,75.2,63.1,29.30,SSE,151,4.0,-999.0,66,0.00,,,0.00,0,Wunderground v.1.15,2015-07-05 14:01:00,
2015-07-05 10:11:00,75.4,63.7,29.30,SSE,156,0.0,-999.0,67,0.00,,,0.00,0,Wunderground v.1.15,2015-07-05 14:11:00,
2015-07-05 10:21:00,75.9,62.4,29.30,South,184,3.0,-999.0,63,0.00,,,0.00,0,Wunderground v.1.15,2015-07-05 14:21:00,
2015-07-05 10:31:00,76.6,63.5,29.30,South,185,4.0,-999.0,64,0.00,,,0.00,0,Wunderground v.1.15,2015-07-05 14:31:00,
2015-07-05 10:36:00,77.0,63.0,29.30,South,183,6.0,-999.0,62,0.00,,,0.00,0,Wunderground v.1.15,2015-07-05 14:36:00,
2015-07-05 10:46:00,77.3,63.3,29.30,SSE,162,5.0,-999.0,62,0.00,,,0.00,0,Wunderground v.1.15,2015-07-05 14:46:00,
2015-07-05 10:56:00,77.7,63.6,29.30,SW,231,4.0,-999.0,62,0.00,,,0.00,0,Wunderground v.1.15,2015-07-05 14:56:00,
2015-07-05 11:06:00,77.7,63.6,29.29,SSE,160,5.0,-999.0,62,0.00,,,0.00,0,Wunderground v.1.15,2015-07-05 15:06:00,
2015-07-05 11:16:00,77.9,62.9,29.30,SE,145,3.0,-999.0,60,0.00,,,0.00,0,Wunderground v.1.15,2015-07-05 15:16:00,
2015-07-05 11:21:00,77.9,64.3,29.30,WNW,297,0.0,-999.0,63,0.00,,,0.00,0,Wunderground v.1.15,2015-07-05 15:21:00,
2015-07-05 11:26:00,77.9,63.8,29.30,South,190,4.0,-999.0,62,0.00,,,0.00,0,Wunderground v.1.15,2015-07-05 15:26:00,
2015-07-05 11:36:00,78.2,63.6,29.29,SSW,200,1.0,-999.0,61,0.00,,,0.00,0,Wunderground v.1.15,2015-07-05 15:36:00,
2015-07-05 11:46:00,78.0,62.5,29.29,SSW,196,4.0,-999.0,59,0.00,,,0.00,0,Wunderground v.1.15,2015-07-05 15:46:00,
2015-07-05 11:51:00,78.2,62.7,29.29,SSW,201,4.0,-999.0,59,0.00,,,0.00,0,Wunderground v.1.15,2015-07-05 15:51:00,
2015-07-05 12:01:00,78.4,61.9,29.29,South,186,1.0,-999.0,57,0.00,,,0.00,0,Wunderground v.1.15,2015-07-05 16:01:00,
2015-07-05 12:11:00,78.6,63.1,29.29,SSW,194,7.0,-999.0,59,0.00,,,0.00,0,Wunderground v.1.15,2015-07-05 16:11:00,
2015-07-05 12:16:00,79.0,62.5,29.29,SE,141,0.0,-999.0,57,0.00,,,0.00,0,Wunderground v.1.15,2015-07-05 16:16:00,
2015-07-05 12:26:00,79.1,61.5,29.29,SW,218,0.0,-999.0,55,0.00,,,0.00,0,Wunderground v.1.15,2015-07-05 16:26:00,
2015-07-05 12:31:00,79.3,61.2,29.28,East,83,2.0,-999.0,54,0.00,,,0.00,0,Wunderground v.1.15,2015-07-05 16:31:00,
2015-07-05 12:36:00,79.5,62.4,29.29,South,190,6.0,-999.0,56,0.00,,,0.00,0,Wunderground v.1.15,2015-07-05 16:36:00,
2015-07-05 12:46:00,79.9,62.8,29.28,SSE,159,2.0,-999.0,56,0.00,,,0.00,0,Wunderground v.1.15,2015-07-05 16:46:00,
2015-07-05 12:56:00,79.7,61.6,29.28,SSW,196,9.0,-999.0,54,0.00,,,0.00,0,Wunderground v.1.15,2015-07-05 16:56:00,
2015-07-05 13:06:00,80.1,60.9,29.28,South,189,3.0,-999.0,52,0.00,,,0.00,0,Wunderground v.1.15,2015-07-05 17:06:00,
2015-07-05 13:16:00,80.1,61.4,29.28,South,183,5.0,-999.0,53,0.00,,,0.00,0,Wunderground v.1.15,2015-07-05 17:16:00,
2015-07-05 13:21:00,80.4,62.2,29.28,WSW,237,4.0,-999.0,54,0.00,,,0.00,0,Wunderground v.1.15,2015-07-05 17:21:00,
2015-07-05 13:31:00,80.3,61.1,29.28,WSW,248,1.0,-999.0,52,0.00,,,0.00,0,Wunderground v.1.15,2015-07-05 17:31:00,
2015-07-05 13:41:00,79.9,59.6,29.28,SSW,195,5.0,-999.0,50,0.00,,,0.00,0,Wunderground v.1.15,2015-07-05 17:41:00,
2015-07-05 13:46:00,79.9,61.2,29.28,South,175,6.0,-999.0,53,0.00,,,0.00,0,Wunderground v.1.15,2015-07-05 17:46:00,
2015-07-05 13:56:00,80.3,63.2,29.28,SSW,201,4.0,-999.0,56,0.00,,,0.00,0,Wunderground v.1.15,2015-07-05 17:56:00,
2015-07-05 14:01:00,80.4,62.2,29.28,SSE,160,3.0,-999.0,54,0.00,,,0.00,0,Wunderground v.1.15,2015-07-05 18:01:00,
2015-07-05 14:06:00,80.5,61.3,29.28,South,180,3.0,-999.0,52,0.00,,,0.00,0,Wunderground v.1.15,2015-07-05 18:06:00,
2015-07-05 14:16:00,80.7,60.9,29.28,SE,144,3.0,-999.0,51,0.00,,,0.00,0,Wunderground v.1.15,2015-07-05 18:16:00,
2015-07-05 14:26:00,80.4,60.6,29.28,SSE,151,2.0,-999.0,51,0.00,,,0.00,0,Wunderground v.1.15,2015-07-05 18:26:00,
2015-07-05 14:31:00,80.4,61.7,29.28,South,175,0.0,-999.0,53,0.00,,,0.00,0,Wunderground v.1.15,2015-07-05 18:31:00,
2015-07-05 14:41:00,80.4,62.2,29.28,WSW,246,3.0,-999.0,54,0.00,,,0.00,0,Wunderground v.1.15,2015-07-05 18:41:00,
2015-07-05 14:51:00,80.6,61.9,29.28,South,185,4.0,-999.0,53,0.00,,,0.00,0,Wunderground v.1.15,2015-07-05 18:51:00,
2015-07-05 14:56:00,80.6,62.4,29.28,South,175,2.0,-999.0,54,0.00,,,0.00,0,Wunderground v.1.15,2015-07-05 18:56:00,
2015-07-05 15:06:00,80.6,61.3,29.27,ESE,106,4.0,-999.0,52,0.00,,,0.00,0,Wunderground v.1.15,2015-07-05 19:06:00,
2015-07-05 15:16:00,80.6,61.3,29.27,SW,222,2.0,-999.0,52,0.00,,,0.00,0,Wunderground v.1.15,2015-07-05 19:16:00,
2015-07-05 15:21:00,80.8,60.4,29.27,SW,222,0.0,-999.0,50,0.00,,,0.00,0,Wunderground v.1.15,2015-07-05 19:21:00,
2015-07-05 15:31:00,81.0,61.7,29.27,East,101,2.0,-999.0,52,0.00,,,0.00,0,Wunderground v.1.15,2015-07-05 19:31:00,
2015-07-05 15:41:00,80.8,62.1,29.26,ESE,117,1.0,-999.0,53,0.00,,,0.00,0,Wunderground v.1.15,2015-07-05 19:41:00,
2015-07-05 15:51:00,80.8,62.1,29.27,WSW,243,1.0,-999.0,53,0.00,,,0.00,0,Wunderground v.1.15,2015-07-05 19:51:00,
2015-07-05 16:01:00,81.2,63.0,29.26,South,174,1.0,-999.0,54,0.00,,,0.00,0,Wunderground v.1.15,2015-07-05 20:01:00,
2015-07-05 16:11:00,81.7,63.4,29.26,South,173,7.0,-999.0,54,0.00,,,0.00,0,Wunderground v.1.15,2015-07-05 20:11:00,
2015-07-05 16:16:00,81.7,61.2,29.26,SE,143,0.0,-999.0,50,0.00,,,0.00,0,Wunderground v.1.15,2015-07-05 20:16:00,
2015-07-05 16:26:00,81.0,60.6,29.26,South,172,3.0,-999.0,50,0.00,,,0.00,0,Wunderground v.1.15,2015-07-05 20:26:00,
2015-07-05 16:36:00,81.2,60.8,29.25,South,169,2.0,-999.0,50,0.00,,,0.00,0,Wunderground v.1.15,2015-07-05 20:36:00,
2015-07-05 16:46:00,81.4,62.6,29.25,SE,136,7.0,-999.0,53,0.00,,,0.00,0,Wunderground v.1.15,2015-07-05 20:46:00,
2015-07-05 16:51:00,81.2,60.8,29.25,ENE,65,2.0,-999.0,50,0.00,,,0.00,0,Wunderground v.1.15,2015-07-05 20:51:00,
2015-07-05 17:01:00,80.8,61.5,29.25,SSE,156,4.0,-999.0,52,0.00,,,0.00,0,Wunderground v.1.15,2015-07-05 21:01:00,
2015-07-05 17:11:00,80.8,62.1,29.25,SE,126,3.0,-999.0,53,0.00,,,0.00,0,Wunderground v.1.15,2015-07-05 21:11:00,
2015-07-05 17:21:00,80.4,60.6,29.25,ESE,105,3.0,-999.0,51,0.00,,,0.00,0,Wunderground v.1.15,2015-07-05 21:21:00,
2015-07-05 17:31:00,80.3,61.6,29.25,ESE,105,4.0,-999.0,53,0.00,,,0.00,0,Wunderground v.1.15,2015-07-05 21:31:00,
2015-07-05 17:36:00,80.1,61.4,29.25,SSE,152,3.0,-999.0,53,0.00,,,0.00,0,Wunderground v.1.15,2015-07-05 21:36:00,
2015-07-05 17:41:00,79.9,60.2,29.25,ESE,116,4.0,-999.0,51,0.00,,,0.00,0,Wunderground v.1.15,2015-07-05 21:41:00,
2015-07-05 17:51:00,79.5,60.9,29.26,SE,125,3.0,-999.0,53,0.00,,,0.00,0,Wunderground v.1.15,2015-07-05 21:51:00,
2015-07-05 17:56:00,79.5,60.3,29.26,SE,131,2.0,-999.0,52,0.00,,,0.00,0,Wunderground v.1.15,2015-07-05 21:56:00,
2015-07-05 18:06:00,79.3,60.1,29.26,South,173,2.0,-999.0,52,0.00,,,0.00,0,Wunderground v.1.15,2015-07-05 22:06:00,